createdAt,value
2017-11-03T00:00:39.657Z,55.73
2017-11-03T00:03:07.988Z,54.23
2017-11-03T00:05:36.326Z,52.40
2017-11-03T00:08:04.641Z,52.73
2017-11-03T00:10:32.954Z,54.40
2017-11-03T00:13:01.295Z,51.17
2017-11-03T00:15:29.632Z,48.83
2017-11-03T00:17:58.716Z,57.60
2017-11-03T00:20:27.044Z,54.97
2017-11-03T00:22:55.353Z,53.20
2017-11-03T00:25:23.680Z,49.70
2017-11-03T00:27:52.757Z,49.50
2017-11-03T00:30:21.068Z,54.53
2017-11-03T00:32:49.386Z,46.50
2017-11-03T00:35:17.705Z,48.73
2017-11-03T00:37:46.770Z,51.13
2017-11-03T00:40:15.086Z,51.37
2017-11-03T00:42:43.385Z,50.40
2017-11-03T00:45:11.691Z,46.27
2017-11-03T00:47:40.025Z,47.83
2017-11-03T00:50:08.325Z,45.97
2017-11-03T00:52:36.622Z,49.80
2017-11-03T00:55:04.955Z,47.07
2017-11-03T00:57:33.269Z,52.30
2017-11-03T01:00:01.602Z,51.10
2017-11-03T01:02:29.908Z,55.07
2017-11-03T01:04:58.229Z,54.87
2017-11-03T01:07:26.533Z,49.00
2017-11-03T01:09:55.617Z,55.70
2017-11-03T01:12:24.677Z,59.33
2017-11-03T01:14:52.996Z,61.70
2017-11-03T01:17:22.053Z,56.07
2017-11-03T01:19:50.424Z,49.90
2017-11-03T01:22:18.741Z,53.03
2017-11-03T01:24:47.812Z,53.93
2017-11-03T01:27:16.127Z,58.40
2017-11-03T01:29:44.427Z,50.93
2017-11-03T01:32:12.757Z,51.80
2017-11-03T01:34:41.055Z,49.33
2017-11-03T01:37:09.361Z,51.53
2017-11-03T01:39:37.654Z,49.90
2017-11-03T01:42:05.972Z,50.40
2017-11-03T01:44:35.052Z,50.23
2017-11-03T01:47:03.357Z,49.23
2017-11-03T01:49:31.660Z,50.63
2017-11-03T01:51:59.981Z,54.37
2017-11-03T01:54:28.326Z,54.53
2017-11-03T01:56:56.642Z,51.30
2017-11-03T01:59:24.944Z,48.60
2017-11-03T02:01:53.263Z,47.40
2017-11-03T02:04:21.583Z,54.90
2017-11-03T02:06:50.657Z,49.97
2017-11-03T02:09:18.968Z,44.53
2017-11-03T02:11:48.045Z,47.40
2017-11-03T02:14:17.136Z,46.50
2017-11-03T02:16:45.459Z,52.00
2017-11-03T02:19:13.757Z,48.73
2017-11-03T02:21:42.061Z,50.20
2017-11-03T02:24:10.378Z,52.20
2017-11-03T02:26:38.681Z,54.77
2017-11-03T02:29:06.995Z,48.60
2017-11-03T02:31:35.313Z,44.90
2017-11-03T02:34:03.608Z,47.27
2017-11-03T02:36:31.929Z,43.00
2017-11-03T02:39:00.246Z,48.60
2017-11-03T02:41:28.553Z,50.30
2017-11-03T02:43:56.848Z,45.67
2017-11-03T02:46:25.170Z,43.87
2017-11-03T02:48:53.480Z,41.50
2017-11-03T02:51:21.797Z,39.07
2017-11-03T02:53:50.871Z,37.00
2017-11-03T02:56:19.203Z,37.93
2017-11-03T02:58:47.510Z,41.10
2017-11-03T03:01:15.839Z,34.87
2017-11-03T03:03:44.918Z,36.13
2017-11-03T03:06:13.235Z,36.40
2017-11-03T03:08:41.611Z,33.87
2017-11-03T03:11:09.996Z,34.37
2017-11-03T03:13:38.315Z,33.93
2017-11-03T03:16:06.642Z,31.87
2017-11-03T03:18:34.952Z,34.80
2017-11-03T03:21:03.279Z,34.73
2017-11-03T03:23:32.368Z,34.87
2017-11-03T03:26:01.502Z,34.60
2017-11-03T03:28:29.815Z,35.13
2017-11-03T03:30:58.139Z,34.93
2017-11-03T03:33:26.450Z,33.90
2017-11-03T03:35:54.777Z,33.10
2017-11-03T03:38:23.867Z,37.60
2017-11-03T03:40:52.938Z,32.80
2017-11-03T03:43:21.257Z,34.47
2017-11-03T03:45:49.567Z,32.93
2017-11-03T03:48:17.898Z,34.40
2017-11-03T03:50:46.229Z,31.10
2017-11-03T03:53:14.567Z,34.80
2017-11-03T03:55:42.895Z,36.40
2017-11-03T03:58:11.222Z,37.83
2017-11-03T04:00:40.297Z,41.70
2017-11-03T04:03:09.383Z,41.63
2017-11-03T04:05:37.693Z,44.70
2017-11-03T04:08:06.029Z,46.67
2017-11-03T04:10:34.339Z,40.30
2017-11-03T04:13:03.424Z,41.40
2017-11-03T04:15:31.765Z,40.30
2017-11-03T04:18:00.085Z,38.50
2017-11-03T04:20:29.168Z,41.43
2017-11-03T04:22:57.490Z,38.07
2017-11-03T04:25:25.822Z,40.90
2017-11-03T04:27:54.177Z,43.10
2017-11-03T04:30:22.490Z,39.17
2017-11-03T04:32:51.582Z,42.20
2017-11-03T04:35:20.715Z,40.90
2017-11-03T04:37:49.070Z,38.93
2017-11-03T04:40:17.386Z,42.60
2017-11-03T04:42:45.714Z,41.77
2017-11-03T04:45:14.786Z,42.37
2017-11-03T04:47:43.102Z,40.40
2017-11-03T04:50:11.419Z,40.30
2017-11-03T04:52:39.742Z,40.63
2017-11-03T04:55:08.819Z,40.23
2017-11-03T04:57:37.131Z,44.30
2017-11-03T05:00:05.447Z,42.77
2017-11-03T05:02:33.772Z,44.80
2017-11-03T05:05:02.870Z,44.80
2017-11-03T05:07:31.942Z,44.40
2017-11-03T05:10:00.261Z,41.90
2017-11-03T05:12:28.566Z,43.90
2017-11-03T05:14:56.894Z,48.60
2017-11-03T05:17:25.994Z,44.80
2017-11-03T05:19:55.069Z,44.10
2017-11-03T05:22:23.381Z,49.93
2017-11-03T05:24:51.713Z,44.40
2017-11-03T05:27:20.017Z,41.80
2017-11-03T05:29:49.104Z,44.13
2017-11-03T05:32:18.180Z,45.30
2017-11-03T05:34:46.506Z,47.13
2017-11-03T05:37:14.810Z,44.77
2017-11-03T05:39:43.134Z,41.10
2017-11-03T05:42:11.434Z,42.37
2017-11-03T05:44:39.765Z,43.87
2017-11-03T05:47:08.088Z,42.63
2017-11-03T05:49:36.406Z,40.07
2017-11-03T05:52:04.768Z,43.03
2017-11-03T05:54:33.085Z,46.67
2017-11-03T05:57:01.385Z,46.20
2017-11-03T05:59:30.462Z,41.30
2017-11-03T06:01:58.762Z,43.70
2017-11-03T06:04:27.082Z,43.03
2017-11-03T06:06:55.411Z,40.50
2017-11-03T06:09:24.490Z,43.50
2017-11-03T06:11:52.790Z,42.30
2017-11-03T06:14:21.123Z,39.27
2017-11-03T06:16:49.451Z,43.00
2017-11-03T06:19:17.798Z,42.10
2017-11-03T06:21:46.106Z,42.70
2017-11-03T06:24:14.433Z,43.17
2017-11-03T06:26:43.562Z,49.47
2017-11-03T06:29:12.646Z,42.10
2017-11-03T06:31:40.946Z,43.03
2017-11-03T06:34:09.285Z,41.33
2017-11-03T06:36:37.590Z,40.50
2017-11-03T06:39:06.671Z,43.87
2017-11-03T06:41:34.970Z,37.83
2017-11-03T06:44:04.050Z,44.83
2017-11-03T06:46:33.119Z,42.77
2017-11-03T06:49:01.436Z,43.77
2017-11-03T06:51:30.518Z,42.37
2017-11-03T06:53:59.601Z,41.03
2017-11-03T06:56:27.902Z,39.47
2017-11-03T06:58:56.974Z,39.30
2017-11-03T07:01:25.282Z,42.37
2017-11-03T07:03:53.598Z,40.70
2017-11-03T07:06:21.908Z,37.90
2017-11-03T07:08:50.210Z,40.70
2017-11-03T07:11:19.282Z,39.50
2017-11-03T07:13:47.579Z,40.00
2017-11-03T07:16:16.654Z,40.73
2017-11-03T07:18:44.958Z,38.70
2017-11-03T07:21:13.295Z,42.77
2017-11-03T07:23:41.631Z,41.23
2017-11-03T07:26:09.953Z,36.13
2017-11-03T07:28:38.257Z,38.93
2017-11-03T07:31:07.337Z,39.77
2017-11-03T07:33:35.630Z,40.57
2017-11-03T07:36:04.708Z,39.07
2017-11-03T07:38:33.011Z,38.57
2017-11-03T07:41:01.348Z,39.13
2017-11-03T07:43:29.653Z,37.83
2017-11-03T07:45:58.740Z,37.67
2017-11-03T07:48:28.632Z,40.13
2017-11-03T07:50:56.958Z,40.17
2017-11-03T07:53:25.274Z,38.63
2017-11-03T07:55:54.207Z,38.70
2017-11-03T07:58:23.293Z,38.93
2017-11-03T08:00:51.605Z,38.60
2017-11-03T08:03:19.914Z,39.33
2017-11-03T08:05:48.225Z,39.70
2017-11-03T08:08:16.550Z,40.70
2017-11-03T08:10:44.869Z,36.37
2017-11-03T08:13:13.186Z,39.60
2017-11-03T08:15:41.514Z,38.27
2017-11-03T08:18:09.819Z,41.30
2017-11-03T08:20:38.913Z,41.83
2017-11-03T08:23:08.002Z,39.40
2017-11-03T08:25:36.324Z,42.03
2017-11-03T08:28:04.641Z,39.57
2017-11-03T08:30:32.958Z,38.77
2017-11-03T08:33:01.270Z,36.33
2017-11-03T08:35:29.585Z,39.53
2017-11-03T08:37:57.890Z,37.77
2017-11-03T08:40:26.217Z,36.97
2017-11-03T08:42:54.530Z,32.87
2017-11-03T08:45:23.617Z,33.17
2017-11-03T08:47:51.934Z,30.10
2017-11-03T08:50:20.262Z,24.60
2017-11-03T08:52:48.575Z,20.47
2017-11-03T08:55:16.946Z,19.07
2017-11-03T08:57:46.014Z,17.13
2017-11-03T09:00:14.330Z,18.27
2017-11-03T09:02:42.638Z,15.90
2017-11-03T09:05:10.954Z,15.63
2017-11-03T09:07:39.272Z,14.43
2017-11-03T09:10:07.600Z,14.50
2017-11-03T09:12:35.939Z,13.30
2017-11-03T09:15:04.254Z,12.30
2017-11-03T09:17:32.563Z,13.90
2017-11-03T09:20:01.643Z,12.20
2017-11-03T09:22:30.759Z,10.83
2017-11-03T09:24:59.074Z,11.40
2017-11-03T09:27:27.402Z,11.97
2017-11-03T09:29:55.734Z,12.10
2017-11-03T09:32:24.058Z,11.77
2017-11-03T09:34:53.138Z,11.83
2017-11-03T09:37:21.459Z,13.07
2017-11-03T09:39:49.782Z,13.43
2017-11-03T09:42:18.125Z,15.47
2017-11-03T09:44:46.438Z,15.50
2017-11-03T09:47:14.776Z,16.70
2017-11-03T09:49:43.087Z,16.70
2017-11-03T09:52:11.426Z,19.30
2017-11-03T09:54:39.730Z,17.33
2017-11-03T09:57:08.058Z,17.00
2017-11-03T09:59:36.374Z,14.00
2017-11-03T10:02:04.686Z,11.60
2017-11-03T10:04:33.008Z,13.03
2017-11-03T10:07:01.339Z,13.17
2017-11-03T10:09:29.646Z,13.03
2017-11-03T10:11:57.973Z,13.00
2017-11-03T10:14:26.318Z,13.70
2017-11-03T10:16:54.638Z,14.40
2017-11-03T10:19:22.953Z,14.50
2017-11-03T10:21:52.043Z,14.30
2017-11-03T10:24:21.110Z,14.40
2017-11-03T10:26:49.438Z,13.80
2017-11-03T10:29:17.757Z,13.60
2017-11-03T10:31:46.073Z,14.70
2017-11-03T10:34:14.397Z,16.13
2017-11-03T10:36:42.715Z,16.07
2017-11-03T10:39:11.787Z,17.03
2017-11-03T10:41:40.118Z,15.83
2017-11-03T10:44:08.434Z,14.53
2017-11-03T10:46:36.785Z,13.87
2017-11-03T10:49:05.094Z,14.30
2017-11-03T10:51:33.419Z,15.03
2017-11-03T10:54:01.743Z,15.40
2017-11-03T10:56:30.062Z,14.83
2017-11-03T10:58:59.128Z,13.80
2017-11-03T11:01:27.452Z,13.83
2017-11-03T11:03:55.765Z,15.80
2017-11-03T11:06:24.089Z,14.67
2017-11-03T11:08:53.161Z,15.40
2017-11-03T11:11:21.482Z,14.30
2017-11-03T11:13:49.810Z,13.43
2017-11-03T11:16:18.131Z,13.40
2017-11-03T11:18:46.441Z,13.40
2017-11-03T11:21:14.786Z,13.33
2017-11-03T11:23:43.106Z,11.00
2017-11-03T11:26:11.421Z,12.57
2017-11-03T11:28:40.490Z,13.23
2017-11-03T11:31:08.793Z,13.37
2017-11-03T11:33:37.877Z,14.23
2017-11-03T11:36:06.229Z,16.03
2017-11-03T11:38:34.547Z,14.63
2017-11-03T11:41:03.622Z,13.30
2017-11-03T11:43:31.933Z,13.40
2017-11-03T11:46:00.259Z,14.17
2017-11-03T11:48:28.574Z,14.67
2017-11-03T11:50:57.646Z,16.40
2017-11-03T11:53:25.970Z,14.03
2017-11-03T11:55:54.282Z,13.73
2017-11-03T11:58:22.597Z,14.27
2017-11-03T12:00:51.670Z,12.87
2017-11-03T12:03:19.989Z,14.63
2017-11-03T12:05:48.294Z,14.60
2017-11-03T12:08:16.605Z,15.97
2017-11-03T12:10:44.918Z,14.20
2017-11-03T12:13:13.237Z,12.37
2017-11-03T12:15:41.548Z,13.40
2017-11-03T12:18:10.635Z,10.93
2017-11-03T12:20:38.961Z,11.30
2017-11-03T12:23:07.289Z,12.30
2017-11-03T12:25:35.598Z,11.60
2017-11-03T12:28:03.906Z,10.90
2017-11-03T12:30:32.214Z,9.23
2017-11-03T12:33:00.536Z,9.60
2017-11-03T12:35:28.861Z,9.90
2017-11-03T12:37:57.182Z,9.53
2017-11-03T12:40:26.254Z,10.13
2017-11-03T12:42:54.586Z,8.73
2017-11-03T12:45:22.898Z,8.50
2017-11-03T12:47:51.221Z,9.67
2017-11-03T12:50:19.538Z,9.10
2017-11-03T12:52:47.856Z,10.30
2017-11-03T12:55:16.934Z,9.33
2017-11-03T12:57:45.246Z,12.10
2017-11-03T13:00:13.596Z,10.63
2017-11-03T13:02:42.671Z,10.63
2017-11-03T13:05:11.000Z,9.63
2017-11-03T13:07:40.310Z,10.93
2017-11-03T13:10:08.627Z,10.63
2017-11-03T13:12:36.950Z,10.73
2017-11-03T13:15:05.266Z,10.53
2017-11-03T13:17:33.590Z,10.30
2017-11-03T13:20:02.682Z,9.87
2017-11-03T13:22:30.998Z,9.97
2017-11-03T13:24:59.322Z,10.23
2017-11-03T13:27:27.618Z,7.57
2017-11-03T13:29:56.698Z,7.13
2017-11-03T13:32:25.773Z,7.60
2017-11-03T13:34:54.136Z,6.30
2017-11-03T13:37:22.441Z,6.70
2017-11-03T13:39:50.762Z,8.90
2017-11-03T13:42:19.066Z,9.07
2017-11-03T13:44:47.407Z,7.37
2017-11-03T13:47:15.710Z,6.90
2017-11-03T13:49:44.025Z,6.50
2017-11-03T13:52:12.326Z,5.30
2017-11-03T13:54:41.411Z,5.37
2017-11-03T13:57:10.486Z,6.40
2017-11-03T13:59:38.813Z,7.00
2017-11-03T14:02:07.126Z,7.23
2017-11-03T14:04:35.446Z,6.80
2017-11-03T14:07:04.514Z,7.37
2017-11-03T14:09:32.830Z,6.13
2017-11-03T14:12:01.138Z,7.57
2017-11-03T14:14:29.448Z,6.53
2017-11-03T14:16:57.749Z,7.50
2017-11-03T14:19:26.834Z,6.47
2017-11-03T14:21:55.141Z,8.33
2017-11-03T14:24:23.451Z,7.57
2017-11-03T14:26:51.770Z,7.83
2017-11-03T14:29:20.859Z,8.83
2017-11-03T14:31:49.193Z,8.60
2017-11-03T14:34:17.520Z,8.07
2017-11-03T14:36:46.594Z,9.73
2017-11-03T14:39:14.906Z,9.70
2017-11-03T14:41:43.981Z,8.73
2017-11-03T14:44:12.294Z,9.67
2017-11-03T14:46:41.373Z,8.93
2017-11-03T14:49:09.698Z,8.70
2017-11-03T14:51:37.998Z,9.90
2017-11-03T14:54:06.307Z,8.67
2017-11-03T14:56:34.626Z,7.53
2017-11-03T14:59:02.985Z,7.97
2017-11-03T15:01:31.312Z,8.97
2017-11-03T15:03:59.622Z,7.60
2017-11-03T15:06:27.939Z,8.47
2017-11-03T15:08:56.246Z,8.70
2017-11-03T15:11:24.553Z,8.10
2017-11-03T15:13:52.859Z,10.33
2017-11-03T15:16:21.194Z,9.03
2017-11-03T15:18:50.274Z,10.13
2017-11-03T15:21:18.600Z,11.67
2017-11-03T15:23:46.914Z,10.77
2017-11-03T15:26:15.233Z,9.70
2017-11-03T15:28:43.585Z,9.47
2017-11-03T15:31:11.904Z,10.17
2017-11-03T15:33:40.210Z,9.80
2017-11-03T15:36:08.530Z,8.57
2017-11-03T15:38:37.604Z,8.60
2017-11-03T15:41:05.919Z,8.50
2017-11-03T15:43:34.225Z,8.43
2017-11-03T15:46:02.547Z,9.33
2017-11-03T15:48:30.857Z,10.00
2017-11-03T15:50:59.171Z,9.10
2017-11-03T15:53:27.483Z,9.13
2017-11-03T15:55:56.573Z,10.13
2017-11-03T15:58:24.881Z,10.10
2017-11-03T16:00:53.198Z,10.33
2017-11-03T16:03:21.514Z,11.80
2017-11-03T16:05:50.601Z,11.33
2017-11-03T16:08:18.925Z,11.70
2017-11-03T16:10:47.245Z,10.97
2017-11-03T16:13:15.550Z,12.40
2017-11-03T16:15:44.638Z,9.73
2017-11-03T16:18:13.722Z,12.10
2017-11-03T16:20:42.050Z,10.57
2017-11-03T16:23:10.364Z,10.30
2017-11-03T16:25:38.696Z,14.53
2017-11-03T16:28:07.027Z,12.03
2017-11-03T16:30:35.362Z,12.90
2017-11-03T16:33:03.670Z,13.60
2017-11-03T16:35:31.995Z,13.83
2017-11-03T16:38:00.308Z,12.10
2017-11-03T16:40:28.642Z,13.20
2017-11-03T16:42:57.721Z,14.23
2017-11-03T16:45:26.810Z,16.40
2017-11-03T16:47:55.136Z,19.10
2017-11-03T16:50:23.456Z,17.17
2017-11-03T16:52:51.778Z,19.40
2017-11-03T16:55:20.086Z,17.87
2017-11-03T16:57:48.411Z,21.00
2017-11-03T17:00:20.463Z,19.00
2017-11-03T17:02:49.581Z,16.93
2017-11-03T17:05:18.652Z,17.80
2017-11-03T17:07:47.749Z,19.87
2017-11-03T17:10:16.831Z,18.80
2017-11-03T17:12:45.158Z,19.37
2017-11-03T17:15:13.473Z,23.73
2017-11-03T17:17:42.568Z,22.83
2017-11-03T17:20:10.902Z,26.00
2017-11-03T17:22:39.228Z,25.07
2017-11-03T17:25:07.543Z,26.27
2017-11-03T17:27:36.626Z,27.63
2017-11-03T17:30:05.707Z,28.20
2017-11-03T17:32:34.056Z,26.43
2017-11-03T17:35:02.394Z,29.30
2017-11-03T17:37:31.503Z,25.80
2017-11-03T17:39:59.816Z,27.40
2017-11-03T17:42:28.158Z,27.87
2017-11-03T17:44:56.473Z,25.47
2017-11-03T17:47:24.794Z,26.40
2017-11-03T17:49:53.884Z,26.30
2017-11-03T17:52:22.986Z,28.13
2017-11-03T17:54:52.054Z,25.50
2017-11-03T17:57:20.370Z,25.50
2017-11-03T17:59:48.675Z,25.43
2017-11-03T18:02:17.043Z,26.33
2017-11-03T18:04:45.362Z,26.87
2017-11-03T18:07:13.676Z,24.60
2017-11-03T18:09:41.995Z,23.83
2017-11-03T18:12:10.359Z,25.47
2017-11-03T18:14:38.666Z,23.43
2017-11-03T18:17:06.970Z,25.87
2017-11-03T18:19:36.064Z,27.20
2017-11-03T18:22:05.138Z,23.97
2017-11-03T18:24:33.482Z,26.07
2017-11-03T18:27:01.819Z,26.40
2017-11-03T18:29:30.925Z,24.40
2017-11-03T18:31:59.230Z,25.30
2017-11-03T18:34:27.544Z,25.03
2017-11-03T18:36:55.908Z,26.73
2017-11-03T18:39:24.245Z,24.13
2017-11-03T18:41:52.552Z,26.40
2017-11-03T18:44:21.633Z,24.90
2017-11-03T18:46:49.949Z,24.23
2017-11-03T18:49:18.332Z,24.13
2017-11-03T18:51:46.640Z,25.60
2017-11-03T18:54:14.999Z,23.43
2017-11-03T18:56:43.361Z,25.27
2017-11-03T18:59:11.678Z,23.67
2017-11-03T19:01:40.032Z,23.33
2017-11-03T19:04:08.358Z,24.57
2017-11-03T19:06:36.690Z,25.27
2017-11-03T19:09:05.774Z,24.00
2017-11-03T19:11:34.121Z,23.10
2017-11-03T19:14:02.431Z,24.40
2017-11-03T19:16:30.743Z,22.63
2017-11-03T19:18:59.078Z,26.13
2017-11-03T19:21:27.399Z,23.17
2017-11-03T19:23:55.722Z,24.40
2017-11-03T19:26:24.036Z,24.20
2017-11-03T19:28:53.181Z,26.20
2017-11-03T19:31:21.510Z,24.13
2017-11-03T19:33:50.655Z,25.70
2017-11-03T19:36:18.954Z,25.80
2017-11-03T19:38:47.332Z,25.53
2017-11-03T19:41:15.639Z,24.27
2017-11-03T19:43:44.724Z,24.53
2017-11-03T19:46:13.036Z,29.97
2017-11-03T19:48:41.389Z,27.63
2017-11-03T19:51:10.477Z,27.10
2017-11-03T19:53:39.572Z,27.37
2017-11-03T19:56:08.654Z,30.30
2017-11-03T19:58:36.963Z,31.57
2017-11-03T20:01:06.101Z,31.57
2017-11-03T20:03:34.462Z,26.90
2017-11-03T20:06:02.857Z,31.27
2017-11-03T20:08:31.223Z,32.00
2017-11-03T20:10:59.607Z,34.70
2017-11-03T20:13:27.952Z,31.77
2017-11-03T20:15:56.338Z,34.50
2017-11-03T20:18:24.721Z,35.50
2017-11-03T20:20:53.099Z,34.77
2017-11-03T20:23:21.409Z,36.57
2017-11-03T20:25:49.778Z,35.93
2017-11-03T20:28:18.087Z,36.60
2017-11-03T20:30:46.467Z,36.67
2017-11-03T20:33:14.792Z,35.67
2017-11-03T20:35:43.179Z,34.43
2017-11-03T20:38:11.478Z,37.27
2017-11-03T20:40:39.853Z,34.40
2017-11-03T20:43:08.180Z,38.67
2017-11-03T20:45:37.275Z,36.40
2017-11-03T20:48:05.641Z,37.73
2017-11-03T20:50:34.751Z,35.80
2017-11-03T20:53:03.078Z,37.97
2017-11-03T20:55:31.391Z,38.63
2017-11-03T20:58:00.485Z,39.97
2017-11-03T21:00:29.635Z,38.67
2017-11-03T21:02:57.945Z,38.00
2017-11-03T21:05:26.275Z,41.60
2017-11-03T21:07:54.646Z,39.47
2017-11-03T21:10:22.961Z,37.43
2017-11-03T21:12:51.354Z,38.93
2017-11-03T21:15:19.691Z,40.27
2017-11-03T21:17:48.049Z,39.20
2017-11-03T21:20:17.189Z,37.00
2017-11-03T21:22:45.566Z,42.60
2017-11-03T21:25:13.921Z,37.97
2017-11-03T21:27:42.283Z,39.70
2017-11-03T21:30:10.641Z,43.40
2017-11-03T21:32:39.005Z,43.93
2017-11-03T21:35:07.358Z,41.20
2017-11-03T21:37:35.746Z,44.17
2017-11-03T21:40:04.866Z,47.10
2017-11-03T21:42:33.198Z,40.03
2017-11-03T21:45:01.571Z,44.97
2017-11-03T21:47:29.883Z,42.40
2017-11-03T21:49:58.195Z,43.63
2017-11-03T21:52:27.338Z,44.40
2017-11-03T21:54:55.698Z,46.43
2017-11-03T21:57:24.014Z,46.73
2017-11-03T21:59:52.381Z,51.03
2017-11-03T22:02:20.745Z,44.70
2017-11-03T22:04:49.047Z,51.83
2017-11-03T22:07:17.415Z,46.37
2017-11-03T22:09:45.721Z,46.80
2017-11-03T22:12:14.087Z,46.93
2017-11-03T22:14:42.402Z,49.87
2017-11-03T22:17:10.726Z,44.93
2017-11-03T22:19:39.080Z,48.63
2017-11-03T22:22:07.950Z,47.57
2017-11-03T22:24:36.262Z,46.73
2017-11-03T22:27:05.478Z,48.23
2017-11-03T22:29:33.822Z,51.37
2017-11-03T22:32:02.192Z,47.57
2017-11-03T22:34:30.567Z,50.60
2017-11-03T22:36:58.929Z,51.57
2017-11-03T22:39:28.014Z,46.50
2017-11-03T22:41:56.316Z,50.50
2017-11-03T22:44:24.687Z,49.97
2017-11-03T22:46:53.006Z,52.70
2017-11-03T22:49:21.337Z,51.70
2017-11-03T22:51:50.402Z,52.60
2017-11-03T22:54:18.722Z,50.70
2017-11-03T22:56:47.030Z,50.13
2017-11-03T23:01:50.678Z,51.90
2017-11-03T23:04:19.087Z,48.23
2017-11-03T23:06:47.410Z,50.30
2017-11-03T23:09:15.747Z,50.77
2017-11-03T23:11:44.074Z,51.00
2017-11-03T23:14:12.445Z,53.30
2017-11-03T23:16:40.750Z,47.90
2017-11-03T23:19:09.118Z,50.67
2017-11-03T23:21:37.431Z,48.87
2017-11-03T23:24:06.515Z,52.27
2017-11-03T23:26:35.586Z,52.93
2017-11-03T23:29:03.903Z,52.50
2017-11-03T23:31:32.232Z,56.97
2017-11-03T23:34:00.599Z,56.00
2017-11-03T23:36:28.905Z,52.50
2017-11-03T23:38:57.219Z,51.00
2017-11-03T23:41:25.533Z,52.97
2017-11-03T23:43:53.857Z,48.47
2017-11-03T23:46:22.957Z,52.10
2017-11-03T23:48:52.038Z,52.60
2017-11-03T23:51:20.346Z,51.13
2017-11-03T23:53:48.672Z,51.90
2017-11-03T23:56:16.997Z,50.13
2017-11-03T23:58:45.325Z,51.40
